createdAt,value
2022-10-14T00:00:19.080Z,6.70
2022-10-14T00:00:42.428Z,7.40
2022-10-14T00:01:06.260Z,8.20
2022-10-14T00:01:31.747Z,8.40
2022-10-14T00:01:54.527Z,8.70
2022-10-14T00:02:17.408Z,9.10
2022-10-14T00:02:40.295Z,10.00
2022-10-14T00:03:03.044Z,10.50
2022-10-14T00:03:25.880Z,9.60
2022-10-14T00:03:48.675Z,10.40
2022-10-14T00:04:11.448Z,11.40
2022-10-14T00:04:34.109Z,10.90
2022-10-14T00:04:56.799Z,10.10
2022-10-14T00:05:19.519Z,9.60
2022-10-14T00:05:42.347Z,10.00
2022-10-14T00:06:05.769Z,10.80
2022-10-14T00:06:29.999Z,11.20
2022-10-14T00:06:52.624Z,12.00
2022-10-14T00:07:15.334Z,12.60
2022-10-14T00:07:38.094Z,13.50
2022-10-14T00:08:03.706Z,13.80
2022-10-14T00:08:26.622Z,15.00
2022-10-14T00:08:49.390Z,15.50
2022-10-14T00:09:12.320Z,16.00
2022-10-14T00:09:35.141Z,15.20
2022-10-14T00:09:57.920Z,15.50
2022-10-14T00:10:20.659Z,16.00
2022-10-14T00:10:43.269Z,16.80
2022-10-14T00:11:06.974Z,16.60
2022-10-14T00:11:30.826Z,16.40
2022-10-14T00:11:53.509Z,16.30
2022-10-14T00:12:16.317Z,16.40
2022-10-14T00:12:39.075Z,16.80
2022-10-14T00:13:03.229Z,17.30
2022-10-14T00:13:25.967Z,17.50
2022-10-14T00:13:48.680Z,17.40
2022-10-14T00:14:13.129Z,18.10
2022-10-14T00:14:36.847Z,18.10
2022-10-14T00:14:59.724Z,18.10
2022-10-14T00:15:22.414Z,18.20
2022-10-14T00:15:45.158Z,18.20
2022-10-14T00:16:09.071Z,18.40
2022-10-14T00:16:33.060Z,18.90
2022-10-14T00:16:55.974Z,19.00
2022-10-14T00:17:18.929Z,19.10
2022-10-14T00:17:41.797Z,19.60
2022-10-14T00:18:04.680Z,20.10
2022-10-14T00:18:27.306Z,19.10
2022-10-14T00:18:50.139Z,18.70
2022-10-14T00:19:13.398Z,18.60
2022-10-14T00:19:36.155Z,19.40
2022-10-14T00:19:59.580Z,20.60
2022-10-14T00:20:25.174Z,20.70
2022-10-14T00:20:54.894Z,20.40
2022-10-14T00:21:17.907Z,20.80
2022-10-14T00:21:42.706Z,20.90
2022-10-14T00:22:05.797Z,20.50
2022-10-14T00:22:28.576Z,21.00
2022-10-14T00:22:51.342Z,20.30
2022-10-14T00:23:14.060Z,20.80
2022-10-14T00:23:36.885Z,21.00
2022-10-14T00:23:59.580Z,21.40
2022-10-14T00:24:22.564Z,21.50
2022-10-14T00:24:45.344Z,21.50
2022-10-14T00:25:09.016Z,22.20
2022-10-14T00:25:31.825Z,22.40
2022-10-14T00:25:54.720Z,22.20
2022-10-14T00:26:19.287Z,22.00
2022-10-14T00:26:42.009Z,21.80
2022-10-14T00:27:04.875Z,21.90
2022-10-14T00:27:27.585Z,22.20
2022-10-14T00:27:50.239Z,22.20
2022-10-14T00:28:14.564Z,22.10
2022-10-14T00:28:37.308Z,22.30
2022-10-14T00:29:00.179Z,22.00
2022-10-14T00:29:23.073Z,21.10
2022-10-14T00:29:45.769Z,20.60
2022-10-14T00:30:10.431Z,20.70
2022-10-14T00:30:33.773Z,21.00
2022-10-14T00:31:00.582Z,21.50
2022-10-14T00:31:23.353Z,22.10
2022-10-14T00:31:46.091Z,21.40
2022-10-14T00:32:08.812Z,20.60
2022-10-14T00:32:31.856Z,20.70
2022-10-14T00:32:54.600Z,20.60
2022-10-14T00:33:17.271Z,20.60
2022-10-14T00:33:40.021Z,20.20
2022-10-14T00:34:02.720Z,20.50
2022-10-14T00:34:25.442Z,20.70
2022-10-14T00:34:48.242Z,21.30
2022-10-14T00:35:10.940Z,21.40
2022-10-14T00:35:33.603Z,21.80
2022-10-14T00:35:57.212Z,21.50
2022-10-14T00:36:20.857Z,21.30
2022-10-14T00:36:43.638Z,21.90
2022-10-14T00:37:06.494Z,21.70
2022-10-14T00:37:29.269Z,21.50
2022-10-14T00:37:51.928Z,21.30
2022-10-14T00:38:14.593Z,21.80
2022-10-14T00:38:37.604Z,22.30
2022-10-14T00:39:00.343Z,22.00
2022-10-14T00:39:23.434Z,21.50
2022-10-14T00:39:46.203Z,21.60
2022-10-14T00:40:10.668Z,21.90
2022-10-14T00:40:33.348Z,21.70
2022-10-14T00:40:56.209Z,22.20
2022-10-14T00:41:21.574Z,22.30
2022-10-14T00:41:45.108Z,22.40
2022-10-14T00:42:10.392Z,22.50
2022-10-14T00:42:33.443Z,22.80
2022-10-14T00:42:56.160Z,22.60
2022-10-14T00:43:20.414Z,22.80
2022-10-14T00:43:54.939Z,23.00
2022-10-14T00:44:54.710Z,23.10
2022-10-14T00:45:20.474Z,23.50
2022-10-14T00:45:43.199Z,24.00
2022-10-14T00:46:06.030Z,23.80
2022-10-14T00:46:29.464Z,23.90
2022-10-14T00:46:52.250Z,24.20
2022-10-14T00:47:15.028Z,24.30
2022-10-14T00:47:37.746Z,24.40
2022-10-14T00:48:00.540Z,24.40
2022-10-14T00:48:24.703Z,23.50
2022-10-14T00:48:47.489Z,24.10
2022-10-14T00:49:12.338Z,23.90
2022-10-14T00:49:37.264Z,23.20
2022-10-14T00:50:00.809Z,23.40
2022-10-14T00:50:23.604Z,23.70
2022-10-14T00:50:47.518Z,24.20
2022-10-14T00:51:10.532Z,24.00
2022-10-14T00:51:33.532Z,23.40
2022-10-14T00:51:58.073Z,23.60
2022-10-14T00:52:22.243Z,23.90
2022-10-14T00:52:45.173Z,23.90
2022-10-14T00:53:07.834Z,23.60
2022-10-14T00:53:31.729Z,23.30
2022-10-14T00:53:54.499Z,23.30
2022-10-14T00:54:17.810Z,22.80
2022-10-14T00:54:42.538Z,22.10
2022-10-14T00:55:06.946Z,21.80
2022-10-14T00:55:29.679Z,21.80
2022-10-14T00:55:52.444Z,21.90
2022-10-14T00:56:16.293Z,22.70
2022-10-14T00:56:39.011Z,22.10
2022-10-14T00:57:02.187Z,22.40
2022-10-14T00:57:25.729Z,22.50
2022-10-14T00:57:51.278Z,23.10
2022-10-14T00:58:13.959Z,23.30
2022-10-14T00:58:38.228Z,23.40
2022-10-14T00:59:00.978Z,23.20
2022-10-14T00:59:23.816Z,23.40
2022-10-14T00:59:46.542Z,23.10
2022-10-14T01:00:11.544Z,22.80
2022-10-14T01:00:34.408Z,22.60
2022-10-14T01:00:57.131Z,22.10
2022-10-14T01:01:19.873Z,22.30
2022-10-14T01:01:42.564Z,22.40
2022-10-14T01:02:05.258Z,22.50
2022-10-14T01:02:27.910Z,22.40
2022-10-14T01:02:50.679Z,22.20
2022-10-14T01:03:18.969Z,22.60
2022-10-14T01:03:42.259Z,22.60
2022-10-14T01:04:05.058Z,22.20
2022-10-14T01:04:27.868Z,22.10
2022-10-14T01:04:50.639Z,22.10
2022-10-14T01:05:14.630Z,22.10
2022-10-14T01:05:40.796Z,22.20
2022-10-14T01:06:08.603Z,22.40
2022-10-14T01:06:40.954Z,22.20
2022-10-14T01:07:06.814Z,23.00
2022-10-14T01:07:38.868Z,23.90
2022-10-14T01:08:05.184Z,23.60
2022-10-14T01:08:30.320Z,24.10
2022-10-14T01:08:56.783Z,24.50
2022-10-14T01:09:22.890Z,24.30
2022-10-14T01:09:50.858Z,24.10
2022-10-14T01:10:17.347Z,23.70
2022-10-14T01:10:42.398Z,23.60
2022-10-14T01:11:08.323Z,24.00
2022-10-14T01:11:35.589Z,23.20
2022-10-14T01:12:27.541Z,23.30
2022-10-14T01:12:54.404Z,23.70
2022-10-14T01:13:21.918Z,24.00
2022-10-14T01:13:48.148Z,23.80
2022-10-14T01:14:14.719Z,23.80
2022-10-14T01:14:40.959Z,24.30
2022-10-14T01:15:06.383Z,23.90
2022-10-14T01:15:34.213Z,23.70
2022-10-14T01:16:04.310Z,24.50
2022-10-14T01:16:31.559Z,24.70
2022-10-14T01:16:57.507Z,25.30
2022-10-14T01:17:25.433Z,25.50
2022-10-14T01:17:53.639Z,25.90
2022-10-14T01:18:25.288Z,26.00
2022-10-14T01:18:59.932Z,26.60
2022-10-14T01:19:37.847Z,27.10
2022-10-14T01:20:11.782Z,27.70
2022-10-14T01:20:45.952Z,28.20
2022-10-14T01:21:12.902Z,27.80
2022-10-14T01:21:36.542Z,27.30
2022-10-14T01:22:00.802Z,27.10
2022-10-14T01:22:25.544Z,26.80
2022-10-14T01:22:54.392Z,27.10
2022-10-14T01:23:44.663Z,27.30
2022-10-14T01:24:37.043Z,27.00
2022-10-14T01:25:07.923Z,27.80
2022-10-14T01:25:32.168Z,27.90
2022-10-14T01:25:58.149Z,27.80
2022-10-14T01:26:37.178Z,28.00
2022-10-14T01:27:17.663Z,28.20
2022-10-14T01:27:58.147Z,28.50
2022-10-14T01:28:23.870Z,28.80
2022-10-14T01:28:51.616Z,29.10
2022-10-14T01:29:21.287Z,29.20
2022-10-14T01:30:08.623Z,29.10
2022-10-14T01:30:32.157Z,28.80
2022-10-14T01:30:56.749Z,29.10
2022-10-14T01:31:19.854Z,29.90
2022-10-14T01:31:44.954Z,29.80
2022-10-14T01:32:10.387Z,29.60
2022-10-14T01:32:34.947Z,29.50
2022-10-14T01:33:11.819Z,29.40
2022-10-14T01:33:37.302Z,29.70
2022-10-14T01:34:02.803Z,30.00
2022-10-14T01:34:28.548Z,29.90
2022-10-14T01:34:54.154Z,29.50
2022-10-14T01:35:21.716Z,29.70
2022-10-14T01:35:51.207Z,29.80
2022-10-14T01:36:16.644Z,30.10
2022-10-14T01:36:42.548Z,29.90
2022-10-14T01:37:06.949Z,29.50
2022-10-14T01:37:29.887Z,29.60
2022-10-14T01:37:53.998Z,29.70
2022-10-14T01:38:19.954Z,29.90
2022-10-14T01:38:44.862Z,29.90
2022-10-14T01:39:11.373Z,29.80
2022-10-14T01:39:38.292Z,29.40
2022-10-14T01:40:03.045Z,29.20
2022-10-14T01:40:29.358Z,29.30
2022-10-14T01:40:55.569Z,29.70
2022-10-14T01:41:20.430Z,29.80
2022-10-14T01:41:45.709Z,29.80
2022-10-14T01:42:09.949Z,29.80
2022-10-14T01:42:34.537Z,29.80
2022-10-14T01:42:57.754Z,29.90
2022-10-14T01:43:20.498Z,30.00
2022-10-14T01:43:43.839Z,29.90
2022-10-14T01:44:08.962Z,30.00
2022-10-14T01:44:31.665Z,30.30
2022-10-14T01:45:05.667Z,31.30
2022-10-14T01:45:29.289Z,31.70
2022-10-14T01:45:51.972Z,31.90
2022-10-14T01:46:14.710Z,32.40
2022-10-14T01:46:38.535Z,32.20
2022-10-14T01:47:01.281Z,32.20
2022-10-14T01:47:24.129Z,31.60
2022-10-14T01:47:47.704Z,30.40
2022-10-14T01:48:10.440Z,30.80
2022-10-14T01:48:35.028Z,31.70
2022-10-14T01:49:00.468Z,31.60
2022-10-14T01:49:25.434Z,32.20
2022-10-14T01:49:50.714Z,31.50
2022-10-14T01:50:15.024Z,31.50
2022-10-14T01:50:37.742Z,30.90
2022-10-14T01:51:02.445Z,30.80
2022-10-14T01:51:30.599Z,30.60
2022-10-14T01:51:54.698Z,30.20
2022-10-14T01:52:20.331Z,30.20
2022-10-14T01:52:46.411Z,30.50
2022-10-14T01:53:13.361Z,29.70
2022-10-14T01:53:38.294Z,30.20
2022-10-14T01:54:04.307Z,30.10
2022-10-14T01:54:30.083Z,30.40
2022-10-14T01:54:53.502Z,30.30
2022-10-14T01:55:18.458Z,30.00
2022-10-14T01:55:43.295Z,29.80
2022-10-14T01:56:05.962Z,30.00
2022-10-14T01:56:28.869Z,29.70
2022-10-14T01:56:51.589Z,30.10
2022-10-14T01:57:19.358Z,30.70
2022-10-14T01:57:42.093Z,30.70
2022-10-14T01:58:05.314Z,30.30
2022-10-14T01:58:28.273Z,30.70
2022-10-14T01:58:52.387Z,30.70
2022-10-14T01:59:15.469Z,30.90
2022-10-14T01:59:38.122Z,31.00
2022-10-14T02:00:02.368Z,30.80
2022-10-14T02:00:25.161Z,30.80
2022-10-14T02:00:48.189Z,30.60
2022-10-14T02:01:10.929Z,30.30
2022-10-14T02:01:35.079Z,30.90
2022-10-14T02:01:57.800Z,31.30
2022-10-14T02:02:23.615Z,31.30
2022-10-14T02:02:46.657Z,31.70
2022-10-14T02:03:10.522Z,32.20
2022-10-14T02:03:41.191Z,32.40
2022-10-14T02:04:04.001Z,32.60
2022-10-14T02:04:26.757Z,33.30
2022-10-14T02:04:49.487Z,35.00
2022-10-14T02:05:15.586Z,35.60
2022-10-14T02:05:41.311Z,35.40
2022-10-14T02:06:05.221Z,35.60
2022-10-14T02:06:29.776Z,35.70
2022-10-14T02:06:55.979Z,36.20
2022-10-14T02:07:20.084Z,36.50
2022-10-14T02:07:44.373Z,36.90
2022-10-14T02:08:11.605Z,36.50
2022-10-14T02:08:36.684Z,36.40
2022-10-14T02:09:04.401Z,36.50
2022-10-14T02:09:29.869Z,36.10
2022-10-14T02:09:56.509Z,36.50
2022-10-14T02:10:26.239Z,36.80
2022-10-14T02:11:01.987Z,36.80
2022-10-14T02:11:25.557Z,36.90
2022-10-14T02:11:53.600Z,36.10
2022-10-14T02:12:23.841Z,36.10
2022-10-14T02:12:53.139Z,36.10
2022-10-14T02:13:24.966Z,35.70
2022-10-14T02:13:58.565Z,35.70
2022-10-14T02:14:28.155Z,36.10
2022-10-14T02:14:54.194Z,36.00
2022-10-14T02:15:21.350Z,36.00
2022-10-14T02:15:50.575Z,36.00
2022-10-14T02:16:17.279Z,35.70
2022-10-14T02:16:41.861Z,35.50
2022-10-14T02:17:06.360Z,35.70
2022-10-14T02:17:30.224Z,35.50
2022-10-14T02:17:55.260Z,34.90
2022-10-14T02:18:22.096Z,34.50
2022-10-14T02:18:49.277Z,35.30
2022-10-14T02:19:18.898Z,35.70
2022-10-14T02:19:44.745Z,36.20
2022-10-14T02:20:13.370Z,36.00
2022-10-14T02:20:37.976Z,36.00
2022-10-14T02:21:02.881Z,35.70
2022-10-14T02:21:29.200Z,35.90
2022-10-14T02:21:54.230Z,36.40
2022-10-14T02:22:21.551Z,36.30
2022-10-14T02:22:46.876Z,36.20
2022-10-14T02:23:12.336Z,36.10
2022-10-14T02:23:38.396Z,36.30
2022-10-14T02:24:04.149Z,36.60
2022-10-14T02:24:30.164Z,36.10
2022-10-14T02:24:54.428Z,35.70
2022-10-14T02:25:18.300Z,35.40
2022-10-14T02:25:41.931Z,34.90
2022-10-14T02:26:04.626Z,34.90
2022-10-14T02:26:27.444Z,35.20
2022-10-14T02:26:50.961Z,35.60
2022-10-14T02:27:15.285Z,35.60
2022-10-14T02:27:37.941Z,35.60
2022-10-14T02:28:00.780Z,35.70
2022-10-14T02:28:25.013Z,36.00
2022-10-14T02:28:47.674Z,35.80
2022-10-14T02:29:10.383Z,36.10
2022-10-14T02:29:33.074Z,36.00
2022-10-14T02:29:55.824Z,36.10
2022-10-14T02:30:19.999Z,35.90
2022-10-14T02:30:47.037Z,36.10
2022-10-14T02:31:12.331Z,36.10
2022-10-14T02:31:35.439Z,36.10
2022-10-14T02:31:58.611Z,36.00
2022-10-14T02:32:21.537Z,36.00
2022-10-14T02:32:44.314Z,36.10
2022-10-14T02:33:07.034Z,36.20
2022-10-14T02:33:33.311Z,36.20
2022-10-14T02:33:58.080Z,36.20
2022-10-14T02:34:21.889Z,36.30
2022-10-14T02:34:45.410Z,36.40
2022-10-14T02:35:09.936Z,36.40
2022-10-14T02:35:35.456Z,36.40
2022-10-14T02:35:58.234Z,36.60
2022-10-14T02:36:22.112Z,36.20
2022-10-14T02:36:44.874Z,36.10
2022-10-14T02:37:07.660Z,35.70
2022-10-14T02:37:33.212Z,35.80
2022-10-14T02:37:55.995Z,35.90
2022-10-14T02:38:19.356Z,36.20
2022-10-14T02:38:42.157Z,36.20
2022-10-14T02:39:05.052Z,36.40
2022-10-14T02:39:30.320Z,36.80
2022-10-14T02:39:55.845Z,37.20
2022-10-14T02:40:20.640Z,37.40
2022-10-14T02:40:45.295Z,37.40
2022-10-14T02:41:14.736Z,37.40
2022-10-14T02:41:37.592Z,37.50
2022-10-14T02:42:00.370Z,37.80
2022-10-14T02:42:23.677Z,37.80
2022-10-14T02:42:46.671Z,38.10
2022-10-14T02:43:10.609Z,38.30
2022-10-14T02:43:33.335Z,38.40
2022-10-14T02:43:56.020Z,38.60
2022-10-14T02:44:18.715Z,38.60
2022-10-14T02:44:53.291Z,38.80
2022-10-14T02:45:15.997Z,39.00
2022-10-14T02:45:40.351Z,38.90
2022-10-14T02:46:03.202Z,39.00
2022-10-14T02:46:25.911Z,39.10
2022-10-14T02:46:49.483Z,39.10
2022-10-14T02:47:12.226Z,39.20
2022-10-14T02:47:34.888Z,39.20
2022-10-14T02:47:57.600Z,39.30
2022-10-14T02:48:20.976Z,39.40
2022-10-14T02:48:43.675Z,39.50
2022-10-14T02:49:06.514Z,39.30
2022-10-14T02:49:29.317Z,39.20
2022-10-14T02:49:52.434Z,39.30
2022-10-14T02:50:15.271Z,39.50
2022-10-14T02:50:37.946Z,39.20
2022-10-14T02:51:00.636Z,39.20
2022-10-14T02:51:23.455Z,39.30
2022-10-14T02:51:46.071Z,39.20
2022-10-14T02:52:08.796Z,39.00
2022-10-14T02:52:31.517Z,39.00
2022-10-14T02:52:54.237Z,39.00
2022-10-14T02:53:16.963Z,39.10
2022-10-14T02:53:39.734Z,39.20
2022-10-14T02:54:02.639Z,39.20
2022-10-14T02:54:25.345Z,39.10
2022-10-14T02:54:48.029Z,39.10
2022-10-14T02:55:10.731Z,39.10
2022-10-14T02:55:33.510Z,39.20
2022-10-14T02:55:56.284Z,39.20
2022-10-14T02:56:19.138Z,39.20
2022-10-14T02:56:41.849Z,39.20
2022-10-14T02:57:04.616Z,39.80
2022-10-14T02:57:27.292Z,39.90
2022-10-14T02:57:50.081Z,39.80
2022-10-14T02:58:12.794Z,39.90
2022-10-14T02:58:35.611Z,40.50
2022-10-14T02:58:58.379Z,39.80
2022-10-14T02:59:21.121Z,39.80
2022-10-14T02:59:43.857Z,39.60
2022-10-14T03:00:07.474Z,39.50
2022-10-14T03:00:30.364Z,40.20
2022-10-14T03:00:54.519Z,39.60
2022-10-14T03:01:17.276Z,39.80
2022-10-14T03:01:40.010Z,39.60
2022-10-14T03:02:02.836Z,39.40
2022-10-14T03:02:25.710Z,39.50
2022-10-14T03:02:48.484Z,39.80
2022-10-14T03:03:11.230Z,39.40
2022-10-14T03:03:33.923Z,39.50
2022-10-14T03:03:56.703Z,39.60
2022-10-14T03:04:19.470Z,39.40
2022-10-14T03:04:42.159Z,40.00
2022-10-14T03:05:05.386Z,39.40
2022-10-14T03:05:28.116Z,39.40
2022-10-14T03:05:50.860Z,39.40
2022-10-14T03:06:13.609Z,39.50
2022-10-14T03:06:36.319Z,39.50
2022-10-14T03:06:59.039Z,39.60
2022-10-14T03:07:21.765Z,39.60
2022-10-14T03:07:44.709Z,39.80
2022-10-14T03:08:07.489Z,40.10
2022-10-14T03:08:30.966Z,40.10
2022-10-14T03:08:53.874Z,40.10
2022-10-14T03:09:16.744Z,40.20
2022-10-14T03:09:39.429Z,40.20
2022-10-14T03:10:03.003Z,40.20
2022-10-14T03:10:25.838Z,40.10
2022-10-14T03:10:48.499Z,40.30
2022-10-14T03:11:11.341Z,40.40
2022-10-14T03:11:34.214Z,40.30
2022-10-14T03:11:56.981Z,40.60
2022-10-14T03:12:20.204Z,40.40
2022-10-14T03:12:43.427Z,40.40
2022-10-14T03:13:06.119Z,40.40
2022-10-14T03:13:28.843Z,40.30
2022-10-14T03:13:51.518Z,40.30
2022-10-14T03:14:14.386Z,40.30
2022-10-14T03:14:37.107Z,40.30
2022-10-14T03:14:59.758Z,40.70
2022-10-14T03:15:22.627Z,40.30
2022-10-14T03:15:45.287Z,40.10
2022-10-14T03:16:09.455Z,40.40
2022-10-14T03:16:32.381Z,40.30
2022-10-14T03:16:55.180Z,40.50
2022-10-14T03:17:17.956Z,40.40
2022-10-14T03:17:40.730Z,40.30
2022-10-14T03:18:03.540Z,40.40
2022-10-14T03:18:26.400Z,40.50
2022-10-14T03:18:49.136Z,40.50
2022-10-14T03:19:11.875Z,40.40
2022-10-14T03:19:34.560Z,40.00
2022-10-14T03:19:58.546Z,40.40
2022-10-14T03:20:21.279Z,40.60
2022-10-14T03:20:46.880Z,40.40
2022-10-14T03:21:09.560Z,40.40
2022-10-14T03:21:35.114Z,40.20
2022-10-14T03:21:57.860Z,40.20
2022-10-14T03:22:20.844Z,40.20
2022-10-14T03:22:43.670Z,40.30
2022-10-14T03:23:06.601Z,40.70
2022-10-14T03:23:29.360Z,40.70
2022-10-14T03:23:53.137Z,40.90
2022-10-14T03:24:16.074Z,40.90
2022-10-14T03:24:38.704Z,41.00
2022-10-14T03:25:01.449Z,41.00
2022-10-14T03:25:24.329Z,40.90
2022-10-14T03:25:47.053Z,40.90
2022-10-14T03:26:13.809Z,40.90
2022-10-14T03:26:36.963Z,40.80
2022-10-14T03:26:59.678Z,40.90
2022-10-14T03:27:22.480Z,41.00
2022-10-14T03:27:45.320Z,41.00
2022-10-14T03:28:08.138Z,41.00
2022-10-14T03:28:30.988Z,41.10
2022-10-14T03:28:53.855Z,41.00
2022-10-14T03:29:16.684Z,41.10
2022-10-14T03:29:39.469Z,40.90
2022-10-14T03:30:02.205Z,40.90
2022-10-14T03:30:26.053Z,40.80
2022-10-14T03:30:48.913Z,40.80
2022-10-14T03:31:13.139Z,41.00
2022-10-14T03:31:35.844Z,41.10
2022-10-14T03:31:58.564Z,41.00
2022-10-14T03:32:21.492Z,40.90
2022-10-14T03:32:44.409Z,41.10
2022-10-14T03:33:07.715Z,40.60
2022-10-14T03:33:33.707Z,40.80
2022-10-14T03:33:56.670Z,40.70
2022-10-14T03:34:19.703Z,40.70
2022-10-14T03:34:42.738Z,40.80
2022-10-14T03:35:06.157Z,40.80
2022-10-14T03:35:28.836Z,40.80
2022-10-14T03:35:51.557Z,40.90
2022-10-14T03:36:14.282Z,40.80
2022-10-14T03:36:36.922Z,40.70
2022-10-14T03:36:59.607Z,40.70
2022-10-14T03:37:22.372Z,40.80
2022-10-14T03:37:45.193Z,41.00
2022-10-14T03:38:07.914Z,41.00
2022-10-14T03:38:30.688Z,40.90
2022-10-14T03:38:53.445Z,40.80
2022-10-14T03:39:16.178Z,40.80
2022-10-14T03:39:39.044Z,40.80
2022-10-14T03:40:01.757Z,40.80
2022-10-14T03:40:24.481Z,40.80
2022-10-14T03:40:47.351Z,40.80
2022-10-14T03:41:10.030Z,40.80
2022-10-14T03:41:32.780Z,40.80
2022-10-14T03:41:55.498Z,40.90
2022-10-14T03:42:21.062Z,40.80
2022-10-14T03:42:44.021Z,40.80
2022-10-14T03:43:06.762Z,40.80
2022-10-14T03:43:29.797Z,41.20
2022-10-14T03:43:52.692Z,40.70
2022-10-14T03:44:15.531Z,40.80
2022-10-14T03:44:38.279Z,40.80
2022-10-14T03:45:02.724Z,40.80
2022-10-14T03:45:25.541Z,40.80
2022-10-14T03:45:48.283Z,40.70
2022-10-14T03:46:12.550Z,40.80
2022-10-14T03:46:35.264Z,40.70
2022-10-14T03:46:58.461Z,41.60
2022-10-14T03:47:21.782Z,41.70
2022-10-14T03:47:44.573Z,41.80
2022-10-14T03:48:07.261Z,41.80
2022-10-14T03:48:29.944Z,41.80
2022-10-14T03:48:53.254Z,41.80
2022-10-14T03:49:15.998Z,41.70
2022-10-14T03:49:41.599Z,41.80
2022-10-14T03:50:05.256Z,41.70
2022-10-14T03:50:28.946Z,41.80
2022-10-14T03:50:51.670Z,41.80
2022-10-14T03:51:14.400Z,41.70
2022-10-14T03:51:37.195Z,41.70
2022-10-14T03:51:59.868Z,41.70
2022-10-14T03:52:22.822Z,41.70
2022-10-14T03:52:47.120Z,41.70
2022-10-14T03:53:10.600Z,41.70
2022-10-14T03:53:34.401Z,41.70
2022-10-14T03:53:57.143Z,41.80
2022-10-14T03:54:19.940Z,41.70
2022-10-14T03:54:42.716Z,41.70
2022-10-14T03:55:09.426Z,41.90
2022-10-14T03:55:32.145Z,41.70
2022-10-14T03:55:54.770Z,41.60
2022-10-14T03:56:17.440Z,41.70
2022-10-14T03:56:40.210Z,41.80
2022-10-14T03:57:02.912Z,41.90
2022-10-14T03:57:26.311Z,41.70
2022-10-14T03:57:49.016Z,41.70
2022-10-14T03:58:11.923Z,41.60
2022-10-14T03:58:34.660Z,41.70
2022-10-14T03:58:57.355Z,41.80
2022-10-14T03:59:20.157Z,41.70
2022-10-14T03:59:43.005Z,41.80
2022-10-14T04:00:07.370Z,41.80
2022-10-14T04:00:30.173Z,41.80
2022-10-14T04:00:52.957Z,41.70
2022-10-14T04:01:17.230Z,41.70
2022-10-14T04:01:40.117Z,41.70
2022-10-14T04:02:05.955Z,41.70
2022-10-14T04:02:28.696Z,41.60
2022-10-14T04:02:51.364Z,41.60
2022-10-14T04:03:14.045Z,41.60
2022-10-14T04:03:36.786Z,41.60
2022-10-14T04:03:59.486Z,41.40
2022-10-14T04:04:22.249Z,41.40
2022-10-14T04:04:45.031Z,41.60
2022-10-14T04:05:08.289Z,41.50
2022-10-14T04:05:34.004Z,41.50
2022-10-14T04:05:56.728Z,41.40
2022-10-14T04:06:19.467Z,41.40
2022-10-14T04:06:42.188Z,41.50
2022-10-14T04:07:05.070Z,41.60
2022-10-14T04:07:27.790Z,41.70
2022-10-14T04:07:50.539Z,41.80
2022-10-14T04:08:13.411Z,41.90
2022-10-14T04:08:36.282Z,41.90
2022-10-14T04:08:59.166Z,41.90
2022-10-14T04:09:21.917Z,42.00
2022-10-14T04:09:44.582Z,42.00
2022-10-14T04:10:08.906Z,42.10
2022-10-14T04:10:31.732Z,42.00
2022-10-14T04:10:54.488Z,41.90
2022-10-14T04:11:17.646Z,41.90
2022-10-14T04:11:40.332Z,42.00
2022-10-14T04:12:03.034Z,42.00
2022-10-14T04:12:25.812Z,42.10
2022-10-14T04:12:48.586Z,42.00
2022-10-14T04:13:11.407Z,42.20
2022-10-14T04:13:34.152Z,42.00
2022-10-14T04:13:58.253Z,42.10
2022-10-14T04:14:20.955Z,42.20
2022-10-14T04:14:43.621Z,42.20
2022-10-14T04:15:07.528Z,42.20
2022-10-14T04:15:30.543Z,42.20
2022-10-14T04:15:53.215Z,42.30
2022-10-14T04:16:17.378Z,42.30
2022-10-14T04:16:40.046Z,42.10
2022-10-14T04:17:02.831Z,42.10
2022-10-14T04:17:25.790Z,42.20
2022-10-14T04:17:48.488Z,42.20
2022-10-14T04:18:11.385Z,42.20
2022-10-14T04:18:34.188Z,42.30
2022-10-14T04:18:58.760Z,42.30
2022-10-14T04:19:21.542Z,42.30
2022-10-14T04:19:44.301Z,42.30
2022-10-14T04:20:07.553Z,42.30
2022-10-14T04:20:30.268Z,42.40
2022-10-14T04:20:53.942Z,42.40
2022-10-14T04:21:16.642Z,42.50
2022-10-14T04:21:39.373Z,42.30
2022-10-14T04:22:02.106Z,42.30
2022-10-14T04:22:25.017Z,42.40
2022-10-14T04:22:47.887Z,42.50
2022-10-14T04:23:10.607Z,42.60
2022-10-14T04:23:34.563Z,42.50
2022-10-14T04:23:57.424Z,42.20
2022-10-14T04:24:20.162Z,42.10
2022-10-14T04:24:43.002Z,41.90
2022-10-14T04:25:07.415Z,41.80
2022-10-14T04:25:30.100Z,41.90
2022-10-14T04:25:52.860Z,41.80
2022-10-14T04:26:15.593Z,42.00
2022-10-14T04:26:38.293Z,42.20
2022-10-14T04:27:00.965Z,42.20
2022-10-14T04:27:23.660Z,42.10
2022-10-14T04:27:46.402Z,42.30
2022-10-14T04:28:09.122Z,42.40
2022-10-14T04:28:31.896Z,42.50
2022-10-14T04:28:54.954Z,42.50
2022-10-14T04:29:17.731Z,42.10
2022-10-14T04:29:40.601Z,42.20
2022-10-14T04:30:03.392Z,42.20
2022-10-14T04:30:26.085Z,42.30
2022-10-14T04:30:48.816Z,42.30
2022-10-14T04:31:11.537Z,42.30
2022-10-14T04:31:35.618Z,42.30
2022-10-14T04:31:58.257Z,41.70
2022-10-14T04:32:21.329Z,41.70
2022-10-14T04:32:44.353Z,41.80
2022-10-14T04:33:07.137Z,41.50
2022-10-14T04:33:29.821Z,41.10
2022-10-14T04:33:52.699Z,41.60
2022-10-14T04:34:15.452Z,41.30
2022-10-14T04:34:38.620Z,41.80
2022-10-14T04:35:01.295Z,42.00
2022-10-14T04:35:24.004Z,42.30
2022-10-14T04:35:46.739Z,41.70
2022-10-14T04:36:09.786Z,42.30
2022-10-14T04:36:32.505Z,42.50
2022-10-14T04:36:55.295Z,42.40
2022-10-14T04:37:18.149Z,42.40
2022-10-14T04:37:40.848Z,42.70
2022-10-14T04:38:03.619Z,42.50
2022-10-14T04:38:26.344Z,42.50
2022-10-14T04:38:49.024Z,42.50
2022-10-14T04:39:11.868Z,42.40
2022-10-14T04:39:34.585Z,41.90
2022-10-14T04:39:57.268Z,41.60
2022-10-14T04:40:20.648Z,41.60
2022-10-14T04:40:45.304Z,41.40
2022-10-14T04:41:07.996Z,41.60
2022-10-14T04:41:30.715Z,41.90
2022-10-14T04:41:53.453Z,41.80
2022-10-14T04:42:16.725Z,41.70
2022-10-14T04:42:39.511Z,42.10
2022-10-14T04:43:02.230Z,42.10
2022-10-14T04:43:24.951Z,42.30
2022-10-14T04:43:47.697Z,42.20
2022-10-14T04:44:10.480Z,42.10
2022-10-14T04:44:33.191Z,42.30
2022-10-14T04:44:55.887Z,42.40
2022-10-14T04:45:18.536Z,42.20
2022-10-14T04:45:42.036Z,42.20
2022-10-14T04:46:05.945Z,42.30
2022-10-14T04:46:28.725Z,42.10
2022-10-14T04:46:52.805Z,42.20
2022-10-14T04:47:15.611Z,42.20
2022-10-14T04:47:38.418Z,42.40
2022-10-14T04:48:01.136Z,42.50
2022-10-14T04:48:23.866Z,43.00
2022-10-14T04:48:47.945Z,42.90
2022-10-14T04:49:10.972Z,42.50
2022-10-14T04:49:33.646Z,42.50
2022-10-14T04:49:56.521Z,42.60
2022-10-14T04:50:19.477Z,42.60
2022-10-14T04:50:42.167Z,42.70
2022-10-14T04:51:05.453Z,42.60
2022-10-14T04:51:28.152Z,42.70
2022-10-14T04:51:51.212Z,42.70
2022-10-14T04:52:14.001Z,42.60
2022-10-14T04:52:36.686Z,42.30
2022-10-14T04:52:59.480Z,42.30
2022-10-14T04:53:22.634Z,42.60
2022-10-14T04:53:45.675Z,42.30
2022-10-14T04:54:08.305Z,42.50
2022-10-14T04:54:31.342Z,42.60
2022-10-14T04:54:55.258Z,42.70
2022-10-14T04:55:18.055Z,42.80
2022-10-14T04:55:40.657Z,42.70
2022-10-14T04:56:03.320Z,42.60
2022-10-14T04:56:26.071Z,42.40
2022-10-14T04:56:48.711Z,42.20
2022-10-14T04:57:11.855Z,42.10
2022-10-14T04:57:34.557Z,42.00
2022-10-14T04:57:57.268Z,42.10
2022-10-14T04:58:20.207Z,42.00
2022-10-14T04:58:42.951Z,41.80
2022-10-14T04:59:05.763Z,41.60
2022-10-14T04:59:28.503Z,41.70
2022-10-14T04:59:51.290Z,41.80
2022-10-14T05:00:14.952Z,41.60
2022-10-14T05:00:37.669Z,41.40
2022-10-14T05:01:00.367Z,41.40
2022-10-14T05:01:23.112Z,41.50
2022-10-14T05:01:46.093Z,41.80
2022-10-14T05:02:10.784Z,42.10
2022-10-14T05:02:33.593Z,42.40
2022-10-14T05:02:56.411Z,42.70
2022-10-14T05:03:19.123Z,41.90
2022-10-14T05:03:41.909Z,41.80
2022-10-14T05:04:04.847Z,41.60
2022-10-14T05:04:27.613Z,41.50
2022-10-14T05:04:50.373Z,41.70
2022-10-14T05:05:15.080Z,41.70
2022-10-14T05:05:37.851Z,41.60
2022-10-14T05:06:00.857Z,41.90
2022-10-14T05:06:23.583Z,42.20
2022-10-14T05:06:46.252Z,42.00
2022-10-14T05:07:08.948Z,41.80
2022-10-14T05:07:31.726Z,41.80
2022-10-14T05:07:54.456Z,41.70
2022-10-14T05:08:17.142Z,41.80
2022-10-14T05:08:39.845Z,41.80
2022-10-14T05:09:02.610Z,41.80
2022-10-14T05:09:25.446Z,41.80
2022-10-14T05:09:50.475Z,42.00
2022-10-14T05:10:15.899Z,41.90